sensor_id;sensor_type;location;lat;lon;timestamp;temperature;humidity
55026;DHT22;40925;45.666;18.994;2024-02-28T00:00:38;281.90;2278.40
55026;DHT22;40925;45.666;18.994;2024-02-28T00:03:04;281.80;2278.40
55026;DHT22;40925;45.666;18.994;2024-02-28T00:05:31;281.90;2278.40
55026;DHT22;40925;45.666;18.994;2024-02-28T00:07:57;281.80;2278.40
55026;DHT22;40925;45.666;18.994;2024-02-28T00:10:23;281.60;2278.40
55026;DHT22;40925;45.666;18.994;2024-02-28T00:12:49;256.80;2252.80
55026;DHT22;40925;45.666;18.994;2024-02-28T00:15:15;256.80;2252.80
55026;DHT22;40925;45.666;18.994;2024-02-28T00:17:41;256.70;2252.80
55026;DHT22;40925;45.666;18.994;2024-02-28T00:20:08;256.70;2252.80
55026;DHT22;40925;45.666;18.994;2024-02-28T00:22:36;256.80;2252.80
55026;DHT22;40925;45.666;18.994;2024-02-28T00:25:05;256.90;2252.80
55026;DHT22;40925;45.666;18.994;2024-02-28T00:27:33;256.80;2252.80
55026;DHT22;40925;45.666;18.994;2024-02-28T00:29:59;256.70;2252.80
55026;DHT22;40925;45.666;18.994;2024-02-28T00:32:25;256.80;2252.80
55026;DHT22;40925;45.666;18.994;2024-02-28T00:34:50;256.70;2252.80
55026;DHT22;40925;45.666;18.994;2024-02-28T00:37:16;256.70;2252.80
55026;DHT22;40925;45.666;18.994;2024-02-28T00:39:44;256.70;2252.80
55026;DHT22;40925;45.666;18.994;2024-02-28T00:42:10;256.70;2252.80
55026;DHT22;40925;45.666;18.994;2024-02-28T00:44:37;256.70;2252.80
55026;DHT22;40925;45.666;18.994;2024-02-28T00:47:06;256.70;2252.80
55026;DHT22;40925;45.666;18.994;2024-02-28T00:49:35;256.70;2252.80
55026;DHT22;40925;45.666;18.994;2024-02-28T00:52:01;256.70;2252.80
55026;DHT22;40925;45.666;18.994;2024-02-28T00:54:27;256.70;2252.80
55026;DHT22;40925;45.666;18.994;2024-02-28T01:00:15;256.80;2252.80
55026;DHT22;40925;45.666;18.994;2024-02-28T01:02:41;256.80;2252.80
55026;DHT22;40925;45.666;18.994;2024-02-28T01:05:08;256.90;2252.80
55026;DHT22;40925;45.666;18.994;2024-02-28T01:07:34;281.60;2278.40
55026;DHT22;40925;45.666;18.994;2024-02-28T01:09:59;256.90;2252.80
55026;DHT22;40925;45.666;18.994;2024-02-28T01:12:25;256.90;2252.80
55026;DHT22;40925;45.666;18.994;2024-02-28T01:14:51;256.70;2252.80
55026;DHT22;40925;45.666;18.994;2024-02-28T01:17:17;256.40;2252.80
55026;DHT22;40925;45.666;18.994;2024-02-28T01:19:42;256.30;2252.80
55026;DHT22;40925;45.666;18.994;2024-02-28T01:22:08;256.10;2252.80
55026;DHT22;40925;45.666;18.994;2024-02-28T01:24:36;256.10;2252.80
55026;DHT22;40925;45.666;18.994;2024-02-28T01:27:02;256.10;2252.80
55026;DHT22;40925;45.666;18.994;2024-02-28T01:29:28;256.20;2252.80
55026;DHT22;40925;45.666;18.994;2024-02-28T01:31:55;256.10;2252.80
55026;DHT22;40925;45.666;18.994;2024-02-28T01:34:22;256.00;2252.80
55026;DHT22;40925;45.666;18.994;2024-02-28T01:36:47;231.20;2252.80
55026;DHT22;40925;45.666;18.994;2024-02-28T01:39:13;256.10;2252.80
55026;DHT22;40925;45.666;18.994;2024-02-28T01:41:53;256.10;2252.80
55026;DHT22;40925;45.666;18.994;2024-02-28T01:44:20;256.10;2252.80
55026;DHT22;40925;45.666;18.994;2024-02-28T01:46:46;256.00;2252.80
55026;DHT22;40925;45.666;18.994;2024-02-28T01:49:12;231.20;2252.80
55026;DHT22;40925;45.666;18.994;2024-02-28T01:51:39;231.10;2252.80
55026;DHT22;40925;45.666;18.994;2024-02-28T01:54:06;231.10;2252.80
55026;DHT22;40925;45.666;18.994;2024-02-28T01:56:32;231.10;2252.80
55026;DHT22;40925;45.666;18.994;2024-02-28T01:58:58;231.00;2252.80
55026;DHT22;40925;45.666;18.994;2024-02-28T02:30:57;231.20;2252.80
55026;DHT22;40925;45.666;18.994;2024-02-28T02:33:22;231.00;2252.80
55026;DHT22;40925;45.666;18.994;2024-02-28T06:11:06;256.20;2252.80
55026;DHT22;40925;45.666;18.994;2024-02-28T06:13:32;231.10;2252.80
55026;DHT22;40925;45.666;18.994;2024-02-28T06:15:58;256.40;2252.80
55026;DHT22;40925;45.666;18.994;2024-02-28T06:18:26;256.80;2252.80
55026;DHT22;40925;45.666;18.994;2024-02-28T06:20:58;282.10;2278.40
55026;DHT22;40925;45.666;18.994;2024-02-28T06:23:25;282.40;2278.40
55026;DHT22;40925;45.666;18.994;2024-02-28T06:25:51;282.40;2278.40
55026;DHT22;40925;45.666;18.994;2024-02-28T06:28:17;307.20;2304.00
55026;DHT22;40925;45.666;18.994;2024-02-28T06:30:43;332.90;2329.60
55026;DHT22;40925;45.666;18.994;2024-02-28T06:33:12;358.80;2329.60
55026;DHT22;40925;45.666;18.994;2024-02-28T06:35:39;384.10;2329.60
55026;DHT22;40925;45.666;18.994;2024-02-28T06:38:05;359.30;2329.60
55026;DHT22;40925;45.666;18.994;2024-02-28T06:40:31;359.20;2329.60
55026;DHT22;40925;45.666;18.994;2024-02-28T06:42:57;359.20;2329.60
55026;DHT22;40925;45.666;18.994;2024-02-28T06:45:23;384.50;2329.60
55026;DHT22;40925;45.666;18.994;2024-02-28T06:47:50;410.50;2355.20
55026;DHT22;40925;45.666;18.994;2024-02-28T06:50:16;435.60;2355.20
55026;DHT22;40925;45.666;18.994;2024-02-28T06:52:42;461.00;2304.00
55026;DHT22;40925;45.666;18.994;2024-02-28T07:00:08;538.30;1843.20
55026;DHT22;40925;45.666;18.994;2024-02-28T07:02:37;538.50;1817.60
55026;DHT22;40925;45.666;18.994;2024-02-28T07:05:04;563.40;1792.00
55026;DHT22;40925;45.666;18.994;2024-02-28T07:07:30;564.00;1740.80
55026;DHT22;40925;45.666;18.994;2024-02-28T07:09:57;588.90;1664.00
55026;DHT22;40925;45.666;18.994;2024-02-28T07:12:23;563.90;1715.20
55026;DHT22;40925;45.666;18.994;2024-02-28T07:14:50;538.40;1715.20
55026;DHT22;40925;45.666;18.994;2024-02-28T07:17:16;512.90;2099.20
55026;DHT22;40925;45.666;18.994;2024-02-28T07:19:41;512.00;1843.20
55026;DHT22;40925;45.666;18.994;2024-02-28T07:22:07;487.20;1868.80
55026;DHT22;40925;45.666;18.994;2024-02-28T07:26:59;486.90;1843.20
55026;DHT22;40925;45.666;18.994;2024-02-28T07:29:24;461.60;1920.00
55026;DHT22;40925;45.666;18.994;2024-02-28T07:31:50;461.30;1945.60
55026;DHT22;40925;45.666;18.994;2024-02-28T07:34:16;486.50;1920.00
55026;DHT22;40925;45.666;18.994;2024-02-28T07:41:41;512.20;1868.80
55026;DHT22;40925;45.666;18.994;2024-02-28T07:44:07;512.40;1843.20
55026;DHT22;40925;45.666;18.994;2024-02-28T07:49:00;538.20;1792.00
55026;DHT22;40925;45.666;18.994;2024-02-28T07:53:52;512.60;1817.60
55026;DHT22;40925;45.666;18.994;2024-02-28T07:56:21;512.40;1817.60
55026;DHT22;40925;45.666;18.994;2024-02-28T07:58:47;512.50;1843.20
55026;DHT22;40925;45.666;18.994;2024-02-28T08:03:42;537.60;1894.40
55026;DHT22;40925;45.666;18.994;2024-02-28T08:06:08;512.80;1843.20
55026;DHT22;40925;45.666;18.994;2024-02-28T08:08:37;512.60;1843.20
55026;DHT22;40925;45.666;18.994;2024-02-28T08:11:03;512.40;1868.80
55026;DHT22;40925;45.666;18.994;2024-02-28T08:13:29;487.20;1868.80
55026;DHT22;40925;45.666;18.994;2024-02-28T08:15:55;486.90;1945.60
55026;DHT22;40925;45.666;18.994;2024-02-28T08:18:21;486.90;1894.40
55026;DHT22;40925;45.666;18.994;2024-02-28T08:20:47;486.90;1894.40
55026;DHT22;40925;45.666;18.994;2024-02-28T08:23:13;487.00;1920.00
55026;DHT22;40925;45.666;18.994;2024-02-28T08:25:38;486.40;1920.00
55026;DHT22;40925;45.666;18.994;2024-02-28T08:32:56;512.30;1843.20
55026;DHT22;40925;45.666;18.994;2024-02-28T08:35:23;512.30;1843.20
55026;DHT22;40925;45.666;18.994;2024-02-28T08:37:49;512.20;1868.80
55026;DHT22;40925;45.666;18.994;2024-02-28T08:40:15;486.70;1868.80
55026;DHT22;40925;45.666;18.994;2024-02-28T08:42:41;486.80;1894.40
55026;DHT22;40925;45.666;18.994;2024-02-28T08:45:07;486.80;1894.40
55026;DHT22;40925;45.666;18.994;2024-02-28T08:47:33;486.60;1945.60
55026;DHT22;40925;45.666;18.994;2024-02-28T08:49:59;487.20;1920.00
55026;DHT22;40925;45.666;18.994;2024-02-28T08:52:25;487.10;1894.40
55026;DHT22;40925;45.666;18.994;2024-02-28T08:54:50;487.20;1868.80
55026;DHT22;40925;45.666;18.994;2024-02-28T08:57:16;512.00;1843.20
55026;DHT22;40925;45.666;18.994;2024-02-28T09:02:08;486.90;1894.40
55026;DHT22;40925;45.666;18.994;2024-02-28T09:04:36;486.70;1920.00
55026;DHT22;40925;45.666;18.994;2024-02-28T09:07:02;487.20;1920.00
55026;DHT22;40925;45.666;18.994;2024-02-28T09:09:28;487.20;1920.00
55026;DHT22;40925;45.666;18.994;2024-02-28T09:11:55;486.70;1894.40
55026;DHT22;40925;45.666;18.994;2024-02-28T09:14:21;461.60;1945.60
55026;DHT22;40925;45.666;18.994;2024-02-28T09:16:47;461.30;1945.60
55026;DHT22;40925;45.666;18.994;2024-02-28T09:19:13;461.40;1971.20
55026;DHT22;40925;45.666;18.994;2024-02-28T09:21:39;461.40;1971.20
55026;DHT22;40925;45.666;18.994;2024-02-28T09:24:05;461.50;1971.20
55026;DHT22;40925;45.666;18.994;2024-02-28T09:26:30;461.70;1971.20
55026;DHT22;40925;45.666;18.994;2024-02-28T09:28:56;486.70;1920.00
55026;DHT22;40925;45.666;18.994;2024-02-28T09:43:41;487.20;2201.60
55026;DHT22;40925;45.666;18.994;2024-02-28T09:46:08;486.70;1894.40
55026;DHT22;40925;45.666;18.994;2024-02-28T09:48:41;486.70;1920.00
55026;DHT22;40925;45.666;18.994;2024-02-28T09:51:08;486.40;1971.20
55026;DHT22;40925;45.666;18.994;2024-02-28T09:53:35;486.60;1920.00
55026;DHT22;40925;45.666;18.994;2024-02-28T09:56:03;487.00;1920.00
55026;DHT22;40925;45.666;18.994;2024-02-28T09:58:30;487.00;1920.00
55026;DHT22;40925;45.666;18.994;2024-02-28T10:00:59;486.70;1945.60
55026;DHT22;40925;45.666;18.994;2024-02-28T10:03:25;487.10;1945.60
55026;DHT22;40925;45.666;18.994;2024-02-28T10:05:51;512.00;1868.80
55026;DHT22;40925;45.666;18.994;2024-02-28T10:08:17;512.00;1868.80
55026;DHT22;40925;45.666;18.994;2024-02-28T10:10:47;487.20;1868.80
55026;DHT22;40925;45.666;18.994;2024-02-28T10:13:15;487.00;1920.00
55026;DHT22;40925;45.666;18.994;2024-02-28T10:15:41;487.20;1894.40
55026;DHT22;40925;45.666;18.994;2024-02-28T10:18:07;512.00;1894.40
55026;DHT22;40925;45.666;18.994;2024-02-28T10:20:32;512.60;1843.20
55026;DHT22;40925;45.666;18.994;2024-02-28T10:22:58;537.70;1868.80
55026;DHT22;40925;45.666;18.994;2024-02-28T10:25:24;512.30;1868.80
55026;DHT22;40925;45.666;18.994;2024-02-28T10:27:58;512.20;1894.40
55026;DHT22;40925;45.666;18.994;2024-02-28T10:30:24;512.40;1843.20
55026;DHT22;40925;45.666;18.994;2024-02-28T10:32:50;537.60;1843.20
55026;DHT22;40925;45.666;18.994;2024-02-28T10:35:17;512.80;1817.60
55026;DHT22;40925;45.666;18.994;2024-02-28T10:37:53;512.70;1843.20
55026;DHT22;40925;45.666;18.994;2024-02-28T10:40:22;537.80;1843.20
55026;DHT22;40925;45.666;18.994;2024-02-28T10:42:48;537.90;1817.60
55026;DHT22;40925;45.666;18.994;2024-02-28T10:45:17;537.70;1843.20
55026;DHT22;40925;45.666;18.994;2024-02-28T10:47:49;512.80;1843.20
55026;DHT22;40925;45.666;18.994;2024-02-28T10:50:15;512.70;1843.20
55026;DHT22;40925;45.666;18.994;2024-02-28T10:52:44;512.80;1843.20
55026;DHT22;40925;45.666;18.994;2024-02-28T10:55:12;512.70;1843.20
55026;DHT22;40925;45.666;18.994;2024-02-28T10:57:39;512.80;1843.20
55026;DHT22;40925;45.666;18.994;2024-02-28T11:00:06;537.60;1817.60
55026;DHT22;40925;45.666;18.994;2024-02-28T11:02:33;538.10;1817.60
55026;DHT22;40925;45.666;18.994;2024-02-28T11:04:59;538.20;1792.00
55026;DHT22;40925;45.666;18.994;2024-02-28T11:07:27;538.40;1766.40
55026;DHT22;40925;45.666;18.994;2024-02-28T11:09:55;563.20;1792.00
55026;DHT22;40925;45.666;18.994;2024-02-28T11:12:28;538.40;1766.40
55026;DHT22;40925;45.666;18.994;2024-02-28T11:15:02;538.50;1740.80
55026;DHT22;40925;45.666;18.994;2024-02-28T11:17:30;563.30;1766.40
55026;DHT22;40925;45.666;18.994;2024-02-28T11:19:56;563.50;1740.80
55026;DHT22;40925;45.666;18.994;2024-02-28T11:22:22;563.60;1740.80
55026;DHT22;40925;45.666;18.994;2024-02-28T11:24:48;563.60;1740.80
55026;DHT22;40925;45.666;18.994;2024-02-28T11:27:15;563.60;1715.20
55026;DHT22;40925;45.666;18.994;2024-02-28T11:49:45;589.10;1612.80
55026;DHT22;40925;45.666;18.994;2024-02-28T11:52:11;588.80;1587.20
55026;DHT22;40925;45.666;18.994;2024-02-28T11:54:39;588.90;1638.40
55026;DHT22;40925;45.666;18.994;2024-02-28T12:09:17;589.50;1561.60
55026;DHT22;40925;45.666;18.994;2024-02-28T12:11:44;589.30;1561.60
55026;DHT22;40925;45.666;18.994;2024-02-28T12:14:10;589.30;1561.60
55026;DHT22;40925;45.666;18.994;2024-02-28T12:16:41;589.50;1536.00
55026;DHT22;40925;45.666;18.994;2024-02-28T12:19:11;614.40;1536.00
55026;DHT22;40925;45.666;18.994;2024-02-28T12:21:40;589.60;1484.80
55026;DHT22;40925;45.666;18.994;2024-02-28T12:24:10;589.60;1510.40
55026;DHT22;40925;45.666;18.994;2024-02-28T12:26:39;589.30;1510.40
55026;DHT22;40925;45.666;18.994;2024-02-28T12:29:05;589.30;1536.00
55026;DHT22;40925;45.666;18.994;2024-02-28T12:31:31;589.50;1510.40
55026;DHT22;40925;45.666;18.994;2024-02-28T12:33:57;589.60;1510.40
55026;DHT22;40925;45.666;18.994;2024-02-28T12:36:23;614.80;1510.40
55026;DHT22;40925;45.666;18.994;2024-02-28T12:38:49;614.60;1484.80
55026;DHT22;40925;45.666;18.994;2024-02-28T12:41:15;614.50;1510.40
55026;DHT22;40925;45.666;18.994;2024-02-28T12:43:41;614.40;1536.00
55026;DHT22;40925;45.666;18.994;2024-02-28T12:46:06;589.60;1536.00
55026;DHT22;40925;45.666;18.994;2024-02-28T12:48:41;589.30;1510.40
55026;DHT22;40925;45.666;18.994;2024-02-28T12:51:08;589.40;1536.00
55026;DHT22;40925;45.666;18.994;2024-02-28T12:53:36;589.00;1510.40
55026;DHT22;40925;45.666;18.994;2024-02-28T12:56:02;588.90;1510.40
55026;DHT22;40925;45.666;18.994;2024-02-28T12:58:28;564.00;1536.00
55026;DHT22;40925;45.666;18.994;2024-02-28T13:00:54;564.00;1587.20
55026;DHT22;40925;45.666;18.994;2024-02-28T13:03:20;563.80;1587.20
55026;DHT22;40925;45.666;18.994;2024-02-28T13:05:45;563.70;1587.20
55026;DHT22;40925;45.666;18.994;2024-02-28T13:08:11;563.60;1561.60
55026;DHT22;40925;45.666;18.994;2024-02-28T13:10:37;563.70;1587.20
55026;DHT22;40925;45.666;18.994;2024-02-28T13:13:09;563.50;1612.80
55026;DHT22;40925;45.666;18.994;2024-02-28T13:15:35;563.30;1638.40
55026;DHT22;40925;45.666;18.994;2024-02-28T13:18:01;563.40;1638.40
55026;DHT22;40925;45.666;18.994;2024-02-28T13:20:32;563.30;1638.40
55026;DHT22;40925;45.666;18.994;2024-02-28T13:22:58;563.30;1638.40
55026;DHT22;40925;45.666;18.994;2024-02-28T13:25:24;538.50;1612.80
55026;DHT22;40925;45.666;18.994;2024-02-28T13:27:50;538.40;1612.80
55026;DHT22;40925;45.666;18.994;2024-02-28T13:32:41;563.30;1612.80
55026;DHT22;40925;45.666;18.994;2024-02-28T13:40:00;563.20;1587.20
55026;DHT22;40925;45.666;18.994;2024-02-28T13:42:26;538.50;1894.40
55026;DHT22;40925;45.666;18.994;2024-02-28T13:44:51;538.30;1587.20
55026;DHT22;40925;45.666;18.994;2024-02-28T13:47:17;538.10;1587.20
55026;DHT22;40925;45.666;18.994;2024-02-28T13:49:43;538.10;1587.20
55026;DHT22;40925;45.666;18.994;2024-02-28T13:52:09;538.10;1587.20
55026;DHT22;40925;45.666;18.994;2024-02-28T13:54:35;538.10;1612.80
55026;DHT22;40925;45.666;18.994;2024-02-28T13:57:00;538.10;1612.80
55026;DHT22;40925;45.666;18.994;2024-02-28T13:59:27;538.20;1612.80
55026;DHT22;40925;45.666;18.994;2024-02-28T14:01:53;538.20;1612.80
55026;DHT22;40925;45.666;18.994;2024-02-28T14:04:18;538.20;1612.80
55026;DHT22;40925;45.666;18.994;2024-02-28T14:06:45;538.40;1612.80
55026;DHT22;40925;45.666;18.994;2024-02-28T14:09:11;563.20;1612.80
55026;DHT22;40925;45.666;18.994;2024-02-28T14:11:37;563.50;1587.20
55026;DHT22;40925;45.666;18.994;2024-02-28T14:14:06;563.80;1612.80
55026;DHT22;40925;45.666;18.994;2024-02-28T14:16:32;563.90;1587.20
55026;DHT22;40925;45.666;18.994;2024-02-28T14:18:58;563.70;1561.60
55026;DHT22;40925;45.666;18.994;2024-02-28T14:21:24;563.70;1561.60
55026;DHT22;40925;45.666;18.994;2024-02-28T14:23:50;563.60;1561.60
55026;DHT22;40925;45.666;18.994;2024-02-28T14:26:16;563.50;1587.20
55026;DHT22;40925;45.666;18.994;2024-02-28T14:28:42;563.40;1587.20
55026;DHT22;40925;45.666;18.994;2024-02-28T14:31:08;563.50;1587.20
55026;DHT22;40925;45.666;18.994;2024-02-28T14:33:34;563.70;1561.60
55026;DHT22;40925;45.666;18.994;2024-02-28T14:36:02;563.70;1587.20
55026;DHT22;40925;45.666;18.994;2024-02-28T14:38:31;563.90;1561.60
55026;DHT22;40925;45.666;18.994;2024-02-28T14:40:57;563.90;1561.60
55026;DHT22;40925;45.666;18.994;2024-02-28T14:43:22;563.90;1561.60
55026;DHT22;40925;45.666;18.994;2024-02-28T14:45:48;588.80;1561.60
55026;DHT22;40925;45.666;18.994;2024-02-28T14:48:14;589.10;1536.00
55026;DHT22;40925;45.666;18.994;2024-02-28T14:50:39;589.10;1510.40
55026;DHT22;40925;45.666;18.994;2024-02-28T14:53:07;589.10;1536.00
55026;DHT22;40925;45.666;18.994;2024-02-28T14:55:33;589.00;1536.00
55026;DHT22;40925;45.666;18.994;2024-02-28T14:57:59;588.90;1510.40
55026;DHT22;40925;45.666;18.994;2024-02-28T15:00:27;564.00;1510.40
55026;DHT22;40925;45.666;18.994;2024-02-28T15:02:53;564.00;1510.40
55026;DHT22;40925;45.666;18.994;2024-02-28T15:05:20;563.60;1561.60
55026;DHT22;40925;45.666;18.994;2024-02-28T15:07:49;563.40;1587.20
55026;DHT22;40925;45.666;18.994;2024-02-28T15:10:15;563.20;1612.80
55026;DHT22;40925;45.666;18.994;2024-02-28T15:12:45;538.10;1612.80
55026;DHT22;40925;45.666;18.994;2024-02-28T15:15:13;538.10;1612.80
55026;DHT22;40925;45.666;18.994;2024-02-28T15:17:49;537.80;1638.40
55026;DHT22;40925;45.666;18.994;2024-02-28T15:20:38;537.90;1638.40
55026;DHT22;40925;45.666;18.994;2024-02-28T15:23:04;538.00;1612.80
55026;DHT22;40925;45.666;18.994;2024-02-28T15:25:30;538.20;1612.80
55026;DHT22;40925;45.666;18.994;2024-02-28T15:28:05;538.10;1612.80
55026;DHT22;40925;45.666;18.994;2024-02-28T15:30:35;538.10;1612.80
55026;DHT22;40925;45.666;18.994;2024-02-28T15:33:01;538.10;1638.40
55026;DHT22;40925;45.666;18.994;2024-02-28T15:35:27;538.00;1638.40
55026;DHT22;40925;45.666;18.994;2024-02-28T15:37:52;537.90;1638.40
55026;DHT22;40925;45.666;18.994;2024-02-28T15:40:22;537.80;1664.00
55026;DHT22;40925;45.666;18.994;2024-02-28T15:42:48;537.70;1664.00
55026;DHT22;40925;45.666;18.994;2024-02-28T15:45:14;537.70;1689.60
55026;DHT22;40925;45.666;18.994;2024-02-28T15:47:43;512.80;1664.00
55026;DHT22;40925;45.666;18.994;2024-02-28T15:50:10;512.80;1689.60
55026;DHT22;40925;45.666;18.994;2024-02-28T15:52:36;512.80;1689.60
55026;DHT22;40925;45.666;18.994;2024-02-28T15:55:02;512.70;1689.60
55026;DHT22;40925;45.666;18.994;2024-02-28T15:57:29;512.60;1715.20
55026;DHT22;40925;45.666;18.994;2024-02-28T15:59:55;512.60;1715.20
55026;DHT22;40925;45.666;18.994;2024-02-28T16:02:21;512.60;1715.20
55026;DHT22;40925;45.666;18.994;2024-02-28T16:04:46;512.50;1715.20
55026;DHT22;40925;45.666;18.994;2024-02-28T16:07:15;512.40;1740.80
55026;DHT22;40925;45.666;18.994;2024-02-28T16:09:41;512.30;1792.00
55026;DHT22;40925;45.666;18.994;2024-02-28T16:12:08;512.20;1740.80
55026;DHT22;40925;45.666;18.994;2024-02-28T16:14:34;512.00;1792.00
55026;DHT22;40925;45.666;18.994;2024-02-28T16:17:00;512.20;1817.60
55026;DHT22;40925;45.666;18.994;2024-02-28T16:19:26;512.00;1766.40
55026;DHT22;40925;45.666;18.994;2024-02-28T16:21:52;487.20;1792.00
55026;DHT22;40925;45.666;18.994;2024-02-28T16:24:18;512.00;1817.60
55026;DHT22;40925;45.666;18.994;2024-02-28T16:26:44;487.20;1817.60
55026;DHT22;40925;45.666;18.994;2024-02-28T16:29:09;487.10;1792.00
55026;DHT22;40925;45.666;18.994;2024-02-28T16:31:38;487.00;1817.60
55026;DHT22;40925;45.666;18.994;2024-02-28T16:34:05;486.90;1843.20
55026;DHT22;40925;45.666;18.994;2024-02-28T16:36:31;486.90;1843.20
55026;DHT22;40925;45.666;18.994;2024-02-28T16:38:56;486.80;1843.20
55026;DHT22;40925;45.666;18.994;2024-02-28T16:41:23;486.70;1843.20
55026;DHT22;40925;45.666;18.994;2024-02-28T16:43:49;486.70;1843.20
55026;DHT22;40925;45.666;18.994;2024-02-28T16:46:16;486.60;1843.20
55026;DHT22;40925;45.666;18.994;2024-02-28T16:48:41;486.50;1868.80
55026;DHT22;40925;45.666;18.994;2024-02-28T16:51:08;486.40;1868.80
55026;DHT22;40925;45.666;18.994;2024-02-28T16:53:34;461.70;1868.80
55026;DHT22;40925;45.666;18.994;2024-02-28T16:56:00;461.70;1894.40
55026;DHT22;40925;45.666;18.994;2024-02-28T16:58:26;461.60;1920.00
55026;DHT22;40925;45.666;18.994;2024-02-28T17:00:53;461.50;2022.40
55026;DHT22;40925;45.666;18.994;2024-02-28T17:03:39;461.40;1945.60
55026;DHT22;40925;45.666;18.994;2024-02-28T17:08:35;461.40;1971.20
55026;DHT22;40925;45.666;18.994;2024-02-28T17:11:09;461.10;1971.20
55026;DHT22;40925;45.666;18.994;2024-02-28T17:13:36;461.00;1996.80
55026;DHT22;40925;45.666;18.994;2024-02-28T17:16:04;460.90;1996.80
55026;DHT22;40925;45.666;18.994;2024-02-28T17:18:32;460.90;2022.40
55026;DHT22;40925;45.666;18.994;2024-02-28T17:20:59;460.80;2022.40
55026;DHT22;40925;45.666;18.994;2024-02-28T17:23:27;460.80;2022.40
55026;DHT22;40925;45.666;18.994;2024-02-28T17:25:53;436.10;1996.80
55026;DHT22;40925;45.666;18.994;2024-02-28T17:28:22;435.30;2022.40
55026;DHT22;40925;45.666;18.994;2024-02-28T17:30:47;436.00;2048.00
55026;DHT22;40925;45.666;18.994;2024-02-28T17:33:13;435.70;2073.60
55026;DHT22;40925;45.666;18.994;2024-02-28T17:35:39;435.80;2073.60
55026;DHT22;40925;45.666;18.994;2024-02-28T17:38:07;435.80;2073.60
55026;DHT22;40925;45.666;18.994;2024-02-28T17:40:33;435.70;2073.60
55026;DHT22;40925;45.666;18.994;2024-02-28T17:42:59;435.70;2073.60
55026;DHT22;40925;45.666;18.994;2024-02-28T17:45:25;435.60;2099.20
55026;DHT22;40925;45.666;18.994;2024-02-28T17:47:51;435.50;2124.80
55026;DHT22;40925;45.666;18.994;2024-02-28T17:50:17;435.40;2150.40
55026;DHT22;40925;45.666;18.994;2024-02-28T17:52:43;435.30;2176.00
55026;DHT22;40925;45.666;18.994;2024-02-28T17:55:10;435.20;2201.60
55026;DHT22;40925;45.666;18.994;2024-02-28T17:57:37;410.50;2227.20
55026;DHT22;40925;45.666;18.994;2024-02-28T18:00:04;435.20;2227.20
55026;DHT22;40925;45.666;18.994;2024-02-28T18:02:39;410.40;2252.80
55026;DHT22;40925;45.666;18.994;2024-02-28T18:05:05;410.20;2252.80
55026;DHT22;40925;45.666;18.994;2024-02-28T18:07:31;410.20;2304.00
55026;DHT22;40925;45.666;18.994;2024-02-28T18:09:57;410.20;2329.60
55026;DHT22;40925;45.666;18.994;2024-02-28T18:12:23;410.10;2329.60
55026;DHT22;40925;45.666;18.994;2024-02-28T18:14:48;410.10;2355.20
55026;DHT22;40925;45.666;18.994;2024-02-28T18:17:14;410.00;2355.20
55026;DHT22;40925;45.666;18.994;2024-02-28T18:19:40;409.90;2355.20
55026;DHT22;40925;45.666;18.994;2024-02-28T18:22:06;409.80;2355.20
55026;DHT22;40925;45.666;18.994;2024-02-28T18:24:38;409.70;2355.20
55026;DHT22;40925;45.666;18.994;2024-02-28T18:27:04;409.60;2355.20
55026;DHT22;40925;45.666;18.994;2024-02-28T18:29:35;409.60;2355.20
55026;DHT22;40925;45.666;18.994;2024-02-28T18:32:02;384.90;2329.60
55026;DHT22;40925;45.666;18.994;2024-02-28T18:34:27;410.00;2355.20
55026;DHT22;40925;45.666;18.994;2024-02-28T18:36:55;384.70;2329.60
55026;DHT22;40925;45.666;18.994;2024-02-28T18:39:22;384.70;2329.60
55026;DHT22;40925;45.666;18.994;2024-02-28T18:41:48;384.60;2329.60
55026;DHT22;40925;45.666;18.994;2024-02-28T18:44:14;384.60;2329.60
55026;DHT22;40925;45.666;18.994;2024-02-28T18:46:40;384.60;2329.60
55026;DHT22;40925;45.666;18.994;2024-02-28T18:58:52;384.60;2329.60
55026;DHT22;40925;45.666;18.994;2024-02-28T19:01:17;384.20;2329.60
55026;DHT22;40925;45.666;18.994;2024-02-28T19:03:43;384.10;2329.60
55026;DHT22;40925;45.666;18.994;2024-02-28T19:06:09;384.00;2329.60
55026;DHT22;40925;45.666;18.994;2024-02-28T19:08:36;359.30;2329.60
55026;DHT22;40925;45.666;18.994;2024-02-28T19:11:03;359.30;2329.60
55026;DHT22;40925;45.666;18.994;2024-02-28T19:13:29;359.20;2329.60
55026;DHT22;40925;45.666;18.994;2024-02-28T19:16:00;359.30;2329.60
55026;DHT22;40925;45.666;18.994;2024-02-28T19:18:26;359.20;2329.60
55026;DHT22;40925;45.666;18.994;2024-02-28T19:20:52;359.10;2329.60
55026;DHT22;40925;45.666;18.994;2024-02-28T19:23:18;359.00;2329.60
55026;DHT22;40925;45.666;18.994;2024-02-28T19:25:48;359.10;2329.60
55026;DHT22;40925;45.666;18.994;2024-02-28T19:28:14;359.10;2329.60
55026;DHT22;40925;45.666;18.994;2024-02-28T19:30:41;359.30;2329.60
55026;DHT22;40925;45.666;18.994;2024-02-28T19:33:07;359.10;2329.60
55026;DHT22;40925;45.666;18.994;2024-02-28T19:35:32;359.00;2329.60
55026;DHT22;40925;45.666;18.994;2024-02-28T19:37:58;358.90;2329.60
55026;DHT22;40925;45.666;18.994;2024-02-28T19:40:24;358.80;2329.60
55026;DHT22;40925;45.666;18.994;2024-02-28T19:42:50;358.90;2329.60
55026;DHT22;40925;45.666;18.994;2024-02-28T19:45:16;358.90;2329.60
55026;DHT22;40925;45.666;18.994;2024-02-28T19:47:42;358.80;2329.60
55026;DHT22;40925;45.666;18.994;2024-02-28T19:50:08;358.80;2329.60
55026;DHT22;40925;45.666;18.994;2024-02-28T19:52:36;358.80;2329.60
55026;DHT22;40925;45.666;18.994;2024-02-28T19:55:03;358.70;2329.60
55026;DHT22;40925;45.666;18.994;2024-02-28T19:57:31;358.60;2329.60
55026;DHT22;40925;45.666;18.994;2024-02-28T19:59:56;358.60;2329.60
55026;DHT22;40925;45.666;18.994;2024-02-28T20:02:24;358.40;2329.60
55026;DHT22;40925;45.666;18.994;2024-02-28T20:04:52;358.50;2329.60
55026;DHT22;40925;45.666;18.994;2024-02-28T20:07:17;333.70;2329.60
55026;DHT22;40925;45.666;18.994;2024-02-28T20:09:43;333.60;2329.60
55026;DHT22;40925;45.666;18.994;2024-02-28T20:12:09;333.60;2329.60